Key West, FL

09:01 EDT le 22 mai 2015 (GMT -0400)
Big Coppitt Key Gulfside | | Change Station
CLOSE
Current Station
Stations météorologiques personnelles
Location: Key West, FL
Altitude: 31 ft
Stations météo à proximité

Alt. 31 ft 24.60 °N, 81.67 °W | Updated 2 minutes ago

Partiellement nuageux
Partiellement nuageux
85.3 ° F
Paraît 93 ° F
N
2.7
Vent Variable Vent de NNE

Aujourd'hui
Haut(e) -- | Bas -- ° F
--% Risque de précip.
Hier
Haut(e) -- | Bas -- ° F
Precip. -- pouce
6:40 AM 8:06 PM
Lune montante, 21% visible
Pression 30.07 pouce
Visibilité 10.0 Miles terrestres
Nuages Nuages épars 2500 ft
Nuages épars 3500 ft
indice de chaleur 93 ° F
Point de rosée 74 ° F
Humidité 68%
Précipitations 0.00 pouce
Profondeur de la couche neigeuse Non disponible.
UV 3 sur 12
Pollen 4.00 sur 12
Qualité de l'air Non disponible.
Flu Activity Sporadic
METAR KNQX 221253Z 35004KT 10SM SCT025 SCT035 29/22 A3008 RMK AO2 SLP183 T02940222 $

More Conditions Fewer Conditions

Pression 30.07 pouce
Visibilité 10.0 Miles terrestres
Nuages Nuages épars 2500 ft
Nuages épars 3500 ft
indice de chaleur 93 ° F
Point de rosée 74 ° F
Humidité 68%
Précipitations 0.00 pouce
Profondeur de la couche neigeuse Non disponible.
UV 3 sur 12
Pollen 4.00 sur 12
Qualité de l'air Non disponible.
Flu Activity Sporadic
METAR KNQX 221253Z 35004KT 10SM SCT025 SCT035 29/22 A3008 RMK AO2 SLP183 T02940222 $

More Conditions Fewer Conditions

10-Day Weather Forecast

Almanac

Astronomie

May. 22, 2015 Lever Coucher
Temps réel
Crépuscule civil
Crépuscule nautique
Crépuscule astronomique
Lune
Durée de lumière visible
Longueur du jour
Tomorrow will be .
, % of the Moon is Illuminated

Extrêmes aujourd'hui

State Highs State Lows

Community

WunderPhotos

Upload Photos

1,823,210 Photos téléchargées !

WunderBlogs® & News

Nearby

Qualité de l'air

  Qualité de l'air Indice de la qualité de l'air Polluant
Not available.

Épaisseur de neige

Station Depth Altitude

Activité sismique

Ville Distance Mag. Time & Date
Minimum magnitude displayed is 2.5.

Températures des eaux côtières

Lieu Température

Stations

Stations météo à proximité

Emplacement de la station Température Refroidissement éolien Point de rosée Humidité Vent Precip. Alt. Mise à jour Type